• Join FlightAware (Why Join?)
  • Login
  • US Flag 
03:18PM EDT


 

Airport Tracker/Info


-or-


 

Live Flight TrackerFlight Track Log ✈ EGF4603 ✈ 05-Apr-2013 ✈ KCLT - KLGA

Flight Track Log - Related Links

Times and Time Zones

All times are in EDT time to prevent confusion due to time zone crossing. See the EGF4603 flight status page for this flight to view local times or setup timezone preferences in your user account.

Time Position Orientation Groundspeed Altitude Reporting Facility
EDT Latitude Longitude Course Direction KTS MPH feet Rate Location/Type
05:01PM 35.2369 -80.9417 72° East 169 194 1,900  Level Atlanta Center
05:02PM 35.2631 -80.9289 22° Northeast 195 224 3,100 2,400 Climbing FAA TRACON SMA TRACON (SMA)
05:02PM 35.2844 -80.9183 22° Northeast 219 252 4,100 2,580 Climbing FAA TRACON SMA TRACON (SMA)
05:02PM 35.3000 -80.9019 41° Northeast 252 290 4,800 2,460 Climbing FAA TRACON SMA TRACON (SMA)
05:03PM 35.1370 -80.6087 29° Northeast  Level FlightAware Approximate
05:03PM 35.3103 -80.8781 62° Northeast 260 299 5,800  Level FAA TRACON SMA TRACON (SMA)
05:03PM 35.3181 -80.8447 74° East 260 299 7,300 3,120 Climbing FAA TRACON SMA TRACON (SMA)
05:03PM 35.3225 -80.8186 78° East 258 297 7,800 1,020 Climbing FAA TRACON SMA TRACON (SMA)
05:03PM 35.3269 -80.7911 79° East 263 303 8,000 240 Climbing FAA TRACON SMA TRACON (SMA)
05:04PM 35.2413 -80.5372 30° Northeast  Level FlightAware Approximate
05:04PM 35.3331 -80.7561 78° East 269 310 8,000  Level FAA TRACON SMA TRACON (SMA)
05:04PM 35.3378 -80.7281 78° East 273 314 8,000 600 Level FAA TRACON SMA TRACON (SMA)
05:04PM 35.3425 -80.7000 78° East 274 315 8,400 1,920 Climbing FAA TRACON SMA TRACON (SMA)
05:05PM 35.3340 -80.4643 72° East  Level FlightAware Approximate
05:05PM 35.3483 -80.6642 79° East 276 318 9,300  Level FAA TRACON SMA TRACON (SMA)
05:05PM 35.3528 -80.6353 79° East 278 320 10,400 2,460 Climbing FAA TRACON SMA TRACON (SMA)
05:06PM 35.3708 -80.3248 72° East  Level FlightAware Approximate
05:06PM 35.3581 -80.6061 77° East 282 325 11,000  Level FAA TRACON SMA TRACON (SMA)
05:06PM 35.3644 -80.5644 79° East 332 382 11,500 1,620 Climbing FAA TRACON SMA TRACON (SMA)
05:06PM 35.3703 -80.5297 78° East 342 394 12,100 1,800 Climbing FAA TRACON SMA TRACON (SMA)
05:07PM 35.3764 -80.4936 78° East 354 407 12,700 2,220 Climbing FAA TRACON SMA TRACON (SMA)
05:07PM 35.3836 -80.4475 79° East 358 412 13,600 2,520 Climbing FAA TRACON SMA TRACON (SMA)
05:07PM 35.3894 -80.4103 79° East 361 415 14,400 2,400 Climbing FAA TRACON SMA TRACON (SMA)
05:08PM 35.3956 -80.3728 79° East 363 418 15,200 1,500 Climbing FAA TRACON SMA TRACON (SMA)
05:08PM 35.3972 -80.3633 78° East 364 419 15,400 2,160 Climbing FAA TRACON SMA TRACON (SMA)
05:10PM 35.4428 -80.1047 78° East 376 433 19,800 2,280 Climbing Washington Center
05:11PM 35.4769 -79.9714 72° East 387 445 21,700 1,860 Climbing Washington Center
05:12PM 35.5089 -79.8431 73° East 393 452 23,600 1,560 Climbing Washington Center
05:13PM 35.5450 -79.7019 73° East 403 464 24,900 1,080 Climbing Washington Center
05:14PM 35.5831 -79.5686 71° East 442 509 25,800 960 Climbing Washington Center
05:15PM 35.6256 -79.4122 71° East 448 516 26,900 1,020 Climbing Washington Center
05:16PM 35.6822 -79.2667 64° Northeast 453 521 27,900 960 Climbing Washington Center
05:17PM 35.7433 -79.1158 63° Northeast 466 536 28,900 540 Climbing Washington Center
05:18PM 35.8039 -78.9625 64° Northeast 484 557 29,000  Climbing Washington Center
05:19PM 35.8708 -78.8064 62° Northeast 498 573 29,000  Level Washington Center
05:20PM 35.9803 -78.6953 39° Northeast 498 573 29,000  Level Washington Center
05:21PM 36.0956 -78.5919 36° Northeast 503 579 29,000  Level Washington Center
05:22PM 36.2172 -78.4858 35° Northeast 516 594 29,000  Level Washington Center
05:23PM 36.3194 -78.3942 36° Northeast 516 594 29,000  Level Washington Center
05:24PM 36.4386 -78.2875 36° Northeast 521 600 29,000  Level Washington Center
05:25PM 36.5558 -78.1856 35° Northeast 516 594 29,000  Level Washington Center
05:26PM 36.6769 -78.0703 37° Northeast 509 586 29,000  Level Washington Center
05:27PM 36.7939 -77.9678 35° Northeast 509 586 29,000  Level Washington Center
05:28PM 36.8964 -77.8461 43° Northeast 509 586 29,000  Level Washington Center
05:29PM 36.9825 -77.7006 53° Northeast 507 583 29,000  Level Washington Center
05:30PM 37.0664 -77.5569 54° Northeast 507 583 29,000  Level Washington Center
05:31PM 37.1542 -77.4108 53° Northeast 512 589 29,000  Level Washington Center
05:32PM 37.2375 -77.2692 54° Northeast 512 589 29,000  Level Washington Center
05:33PM 37.3250 -77.1275 52° Northeast 512 589 29,000  Level Washington Center
05:34PM 37.4325 -77.0408 33° Northeast 496 571 29,000  Level Washington Center
05:35PM 37.5544 -76.9486 31° Northeast 502 578 29,000  Level Washington Center
05:36PM 37.6764 -76.8592 30° Northeast 502 578 29,000  Level Washington Center
05:37PM 37.7961 -76.7692 31° Northeast 502 578 29,000  Level Washington Center
05:38PM 37.9306 -76.6711 30° Northeast 496 571 29,000  Level Washington Center
05:39PM 38.0503 -76.5806 31° Northeast 496 571 29,000  Level Washington Center
05:40PM 38.1678 -76.4897 31° Northeast 491 565 29,000  Level Washington Center
05:41PM 38.2808 -76.4039 31° Northeast 486 559 29,000  Level Washington Center
05:42PM 38.3878 -76.3069 35° Northeast 476 548 29,000 -600 Level Washington Center
05:43PM 38.4928 -76.2072 37° Northeast 471 542 27,900 -1,020 Descending Washington Center
05:44PM 38.5953 -76.1175 34° Northeast 476 548 27,000 -480 Descending Washington Center
05:45PM 38.7061 -76.0147 36° Northeast 487 560 27,000  Level Washington Center
05:46PM 38.8169 -75.9086 37° Northeast 492 566 27,000  Level Washington Center
05:47PM 38.9278 -75.8078 35° Northeast 492 566 27,000 -120 Level Washington Center
05:48PM 39.0361 -75.7039 37° Northeast 492 566 26,800 -1,200 Descending Washington Center
05:49PM 39.1447 -75.5997 37° Northeast 492 566 24,700 -1,500 Descending Washington Center
05:50PM 39.2531 -75.5006 35° Northeast 487 560 23,800 -1,500 Descending Washington Center
05:51PM 39.3592 -75.4036 35° Northeast 475 547 21,700 -1,440 Descending Washington Center
05:52PM 39.4653 -75.3092 34° Northeast 467 537 21,000 -720 Descending Washington Center
05:53PM 39.5692 -75.2172 34° Northeast 467 537 20,300 -1,200 Descending Washington Center
05:54PM 39.6772 -75.1144 36° Northeast 454 522 18,600 -1,860 Descending Washington Center
05:55PM 39.7747 -75.0325 33° Northeast 433 498 16,600 -1,800 Descending Washington Center
05:56PM 39.8700 -74.9481 34° Northeast 421 484 15,000 -1,740 Descending Washington Center
05:57PM 39.9550 -74.8525 41° Northeast 403 464 13,200 -1,740 Descending Washington Center
05:57PM 40.0000 -74.8000 42° Northeast 389 448 12,300 -1,800 Descending New York TRACON
05:58PM 40.0667 -74.7000 49° Northeast 382 440 10,600 -1,260 Descending New York TRACON
05:59PM 40.1333 -74.6000 49° Northeast 369 425 10,000 -300 Descending New York TRACON
06:00PM 40.2000 -74.5000 49° Northeast 341 392 10,000 -660 Level New York TRACON
06:01PM 40.2500 -74.4333 45° Northeast 290 334 8,700 -1,500 Descending New York TRACON
06:02PM 40.3000 -74.3667 45° Northeast 282 325 7,100 -840 Descending New York TRACON
06:03PM 40.3667 -74.3000 37° Northeast 277 319 7,100  Level New York TRACON
06:04PM 40.4167 -74.2333 45° Northeast 269 310 7,100 -540 Level New York TRACON
06:05PM 40.4833 -74.1667 37° Northeast 270 311 6,100 -1,500 Descending New York TRACON
06:06PM 40.5333 -74.1167 37° Northeast 268 308 4,100 -1,620 Descending New York TRACON
06:07PM 40.6000 -74.0500 37° Northeast 220 253 2,700 -720 Descending New York TRACON
06:08PM 40.6500 -74.0000 37° Northeast 215 247 2,600 -120 Descending New York TRACON